Time;durP1;ratioP1;P1;durP2;ratioP2;P2;SDS_P1;SDS_P2;PMS_P1;PMS_P2;Temp;Humidity;BMP_temperature;BMP_pressure;BME280_temperature;BME280_humidity;BME280_pressure;Samples;Min_cycle;Max_cycle;Signal;HPM_P1;HPM_P2
2022/11/01 00:01:06;;;;;;;14.13;6.80;;;;;;;14.31;100.00;100850.50;5068395;28;20052;-69
2022/11/01 00:03:32;;;;;;;17.30;7.57;;;;;;;14.28;100.00;100856.13;5056889;28;20075;-70
2022/11/01 00:05:57;;;;;;;16.90;6.57;;;;;;;14.34;100.00;100845.78;5054221;28;20044;-68
2022/11/01 00:08:22;;;;;;;15.60;7.18;;;;;;;14.25;100.00;100847.34;5052371;28;20041;-67
2022/11/01 00:10:48;;;;;;;18.20;6.25;;;;;;;14.23;100.00;100837.72;5050893;28;20045;-69
2022/11/01 00:13:13;;;;;;;16.23;6.38;;;;;;;14.22;100.00;100844.06;5050425;28;20039;-68
2022/11/01 00:15:39;;;;;;;18.80;8.25;;;;;;;14.25;100.00;100841.97;5044338;28;20572;-69
2022/11/01 00:18:04;;;;;;;17.02;6.95;;;;;;;14.19;100.00;100842.47;5049825;28;20032;-69
2022/11/01 00:20:30;;;;;;;16.20;7.25;;;;;;;14.14;100.00;100838.44;5055946;28;20091;-69
2022/11/01 00:22:55;;;;;;;16.33;6.90;;;;;;;14.18;100.00;100837.22;5042997;28;20786;-68
2022/11/01 00:25:21;;;;;;;13.15;6.68;;;;;;;14.19;100.00;100836.25;5048967;28;20041;-69
2022/11/01 00:27:46;;;;;;;17.23;6.72;;;;;;;14.21;100.00;100829.81;5057071;28;20032;-70
2022/11/01 00:30:12;;;;;;;15.77;6.00;;;;;;;14.21;100.00;100827.13;5052387;28;20037;-68
2022/11/01 00:32:37;;;;;;;18.30;7.07;;;;;;;14.25;100.00;100817.84;5058610;28;20477;-69
2022/11/01 00:35:03;;;;;;;21.15;7.10;;;;;;;14.23;100.00;100816.25;5052897;28;20048;-68
2022/11/01 00:37:28;;;;;;;13.90;6.43;;;;;;;14.22;100.00;100812.72;5073724;28;20071;-68
2022/11/01 00:39:54;;;;;;;14.82;6.05;;;;;;;14.35;100.00;100809.91;5049070;28;20033;-67
2022/11/01 00:42:20;;;;;;;27.73;7.05;;;;;;;14.36;100.00;100805.44;5051869;28;20037;-69
2022/11/01 00:44:45;;;;;;;18.15;7.57;;;;;;;14.39;100.00;100799.78;5056807;28;20040;-69
2022/11/01 00:47:11;;;;;;;15.68;6.63;;;;;;;14.34;100.00;100791.25;5055419;28;20033;-68
2022/11/01 00:49:36;;;;;;;12.57;6.28;;;;;;;14.35;100.00;100798.31;5052522;28;20063;-69
2022/11/01 00:52:02;;;;;;;16.95;6.53;;;;;;;14.41;100.00;100798.72;5044818;28;20496;-69
2022/11/01 00:54:27;;;;;;;16.60;7.68;;;;;;;14.45;100.00;100788.56;5053196;28;20386;-68
2022/11/01 00:56:53;;;;;;;14.82;6.35;;;;;;;14.43;100.00;100793.22;5052864;28;21920;-70
2022/11/01 00:59:19;;;;;;;10.85;5.82;;;;;;;14.57;100.00;100798.38;5057086;28;20059;-68
2022/11/01 01:01:44;;;;;;;12.63;6.07;;;;;;;14.59;100.00;100793.72;5045073;28;20048;-68
2022/11/01 01:04:10;;;;;;;21.50;5.82;;;;;;;14.63;100.00;100784.44;5056194;28;20044;-68
2022/11/01 01:06:35;;;;;;;18.83;6.60;;;;;;;14.55;100.00;100784.19;5053311;28;20127;-68
2022/11/01 01:09:01;;;;;;;14.05;5.82;;;;;;;14.49;100.00;100776.66;5059225;28;20036;-68
2022/11/01 01:11:27;;;;;;;15.30;6.07;;;;;;;14.54;100.00;100774.44;5060323;28;20406;-68
2022/11/01 01:13:52;;;;;;;19.60;6.18;;;;;;;14.49;100.00;100771.28;5053115;28;20033;-68
2022/11/01 01:16:18;;;;;;;18.38;6.13;;;;;;;14.50;100.00;100772.97;5058977;28;20047;-67
2022/11/01 01:18:43;;;;;;;15.18;7.55;;;;;;;14.52;100.00;100765.69;5056363;28;20036;-67
2022/11/01 01:21:09;;;;;;;15.60;6.68;;;;;;;14.48;100.00;100767.75;5045127;28;20588;-67
2022/11/01 01:23:35;;;;;;;13.88;5.72;;;;;;;14.51;100.00;100758.63;5052768;28;20078;-67
2022/11/01 01:26:05;;;;;;;13.00;6.28;;;;;;;14.48;100.00;100759.69;5055709;28;20039;-68
2022/11/01 01:28:31;;;;;;;15.82;6.78;;;;;;;14.53;100.00;100758.47;5053515;28;20135;-68
2022/11/01 01:30:56;;;;;;;19.20;6.93;;;;;;;14.50;100.00;100757.72;5058454;28;20040;-69
2022/11/01 01:33:22;;;;;;;21.10;5.95;;;;;;;14.57;100.00;100768.00;5053986;28;20103;-67
2022/11/01 01:35:47;;;;;;;15.02;6.68;;;;;;;14.60;100.00;100762.34;5049783;28;20063;-68
2022/11/01 01:38:12;;;;;;;15.43;6.90;;;;;;;14.57;100.00;100760.78;5059002;28;20045;-66
2022/11/01 01:40:38;;;;;;;14.52;5.75;;;;;;;14.60;100.00;100755.16;5059006;28;20024;-68
2022/11/01 01:43:03;;;;;;;14.13;5.88;;;;;;;14.72;100.00;100748.81;5053088;28;20461;-68
2022/11/01 01:45:35;;;;;;;16.88;6.03;;;;;;;14.71;100.00;100749.78;5060968;28;20043;-69
2022/11/01 01:48:21;;;;;;;17.67;6.82;;;;;;;14.76;100.00;100744.88;5057245;28;20063;-69
2022/11/01 01:50:54;;;;;;;18.30;6.20;;;;;;;14.70;100.00;100748.06;5055444;28;20202;-69
2022/11/01 01:53:26;;;;;;;19.08;6.65;;;;;;;14.65;100.00;100742.22;5060766;28;20047;-68
2022/11/01 01:55:57;;;;;;;17.67;6.07;;;;;;;14.66;100.00;100735.00;5048403;28;20040;-68
2022/11/01 01:58:27;;;;;;;20.13;7.45;;;;;;;14.58;100.00;100732.97;5073401;28;20531;-68
2022/11/01 02:00:53;;;;;;;16.20;6.50;;;;;;;14.63;100.00;100741.50;5054112;28;20055;-68
2022/11/01 02:03:21;;;;;;;20.65;6.70;;;;;;;14.70;100.00;100734.63;5061275;28;20040;-67
2022/11/01 02:05:52;;;;;;;20.30;6.53;;;;;;;14.65;100.00;100738.69;5060336;28;20040;-68
2022/11/01 02:08:26;;;;;;;11.23;5.22;;;;;;;14.63;100.00;100733.44;5055304;28;20040;-68
2022/11/01 02:10:58;;;;;;;13.57;6.00;;;;;;;14.66;100.00;100726.97;5054834;28;20064;-68
2022/11/01 02:13:24;;;;;;;;;;;;;;;14.70;100.00;100733.78;5051969;28;20033;-68
2022/11/01 02:16:05;;;;;;;13.95;6.55;;;;;;;14.73;100.00;100729.03;5054551;28;20371;-69
2022/11/01 02:18:49;;;;;;;14.88;6.65;;;;;;;14.64;100.00;100721.72;5046340;28;20125;-68
2022/11/01 02:21:23;;;;;;;15.57;5.72;;;;;;;14.67;100.00;100726.84;5059161;28;20048;-68
2022/11/01 02:24:13;;;;;;;12.98;6.32;;;;;;;14.70;100.00;100725.72;5058675;28;20460;-68
2022/11/01 02:26:57;;;;;;;10.88;5.60;;;;;;;14.54;100.00;100731.50;5049964;28;20214;-67
2022/11/01 02:29:43;;;;;;;14.55;6.25;;;;;;;14.54;100.00;100734.19;5056031;28;20044;-68
2022/11/01 02:32:23;;;;;;;18.80;6.13;;;;;;;14.63;100.00;100725.41;5059163;28;20873;-68
2022/11/01 02:35:00;;;;;;;20.63;5.88;;;;;;;14.63;100.00;100717.34;5059645;28;20043;-68
2022/11/01 02:37:52;;;;;;;13.23;6.40;;;;;;;14.60;100.00;100731.00;5057720;28;20040;-68
2022/11/01 02:40:39;;;;;;;10.77;4.88;;;;;;;14.67;100.00;100726.84;5056243;28;20071;-67
2022/11/01 02:43:21;;;;;;;10.05;5.70;;;;;;;14.61;100.00;100732.72;5058663;28;20452;-68
2022/11/01 02:45:49;;;;;;;13.68;5.75;;;;;;;14.65;100.00;100727.94;5051942;28;20136;-68
2022/11/01 02:48:19;;;;;;;7.35;5.32;;;;;;;14.68;100.00;100736.59;5073105;28;20095;-69
2022/11/01 02:50:55;;;;;;;18.73;6.63;;;;;;;14.62;100.00;100741.63;5061107;28;20064;-69
2022/11/01 02:53:21;;;;;;;16.35;5.35;;;;;;;14.87;100.00;100738.63;5060464;28;20056;-69
2022/11/01 02:55:46;;;;;;;13.07;5.45;;;;;;;14.88;100.00;100731.41;5060727;28;20044;-70
2022/11/01 02:58:21;;;;;;;17.65;5.47;;;;;;;15.01;100.00;100730.28;5056780;28;20058;-68
2022/11/01 03:00:46;;;;;;;12.50;5.53;;;;;;;15.06;100.00;100731.69;5060121;28;20036;-68
2022/11/01 03:03:33;;;;;;;11.10;5.78;;;;;;;15.01;100.00;100732.97;5054693;28;20043;-68
2022/11/01 03:06:04;;;;;;;16.10;5.78;;;;;;;15.07;100.00;100722.69;5055042;28;20109;-69
2022/11/01 03:08:29;;;;;;;13.73;5.37;;;;;;;15.15;100.00;100729.09;5060693;28;20059;-67
2022/11/01 03:11:16;;;;;;;17.38;5.57;;;;;;;15.17;100.00;100727.16;5041768;28;20494;-68
2022/11/01 03:14:02;;;;;;;8.77;4.80;;;;;;;15.08;100.00;100722.53;5057727;28;20880;-69
2022/11/01 03:16:35;;;;;;;13.63;4.85;;;;;;;15.09;100.00;100731.44;5061921;28;20123;-67
2022/11/01 03:19:05;;;;;;;15.77;5.75;;;;;;;14.94;100.00;100733.59;5074596;28;20072;-67
2022/11/01 03:21:40;;;;;;;18.33;6.72;;;;;;;15.07;100.00;100731.59;5060059;28;20059;-69
2022/11/01 03:24:26;;;;;;;11.00;5.30;;;;;;;14.95;100.00;100730.75;5064332;28;20040;-69
2022/11/01 03:27:15;;;;;;;9.43;5.65;;;;;;;14.91;100.00;100731.16;5060204;28;20039;-69
2022/11/01 03:29:45;;;;;;;15.98;5.43;;;;;;;14.94;100.00;100728.22;5057855;28;20048;-67
2022/11/01 03:32:13;;;;;;;10.48;5.05;;;;;;;15.00;100.00;100727.69;5057502;28;20094;-67
2022/11/01 03:34:40;;;;;;;11.38;5.22;;;;;;;14.90;100.00;100732.97;5062925;28;20039;-67
2022/11/01 03:37:10;;;;;;;12.63;5.32;;;;;;;15.02;100.00;100736.50;5063574;28;20064;-68
2022/11/01 03:39:42;;;;;;;12.15;5.30;;;;;;;15.16;100.00;100743.38;5064340;28;20032;-71
2022/11/01 03:42:18;;;;;;;10.20;4.85;;;;;;;15.02;100.00;100733.81;5054605;28;20076;-68
2022/11/01 03:44:48;;;;;;;7.05;4.65;;;;;;;15.18;100.00;100734.22;5047768;28;20452;-68
2022/11/01 03:47:13;;;;;;;11.38;4.95;;;;;;;15.23;100.00;100734.69;5059150;28;20454;-67
2022/11/01 03:49:39;;;;;;;18.83;4.82;;;;;;;15.28;100.00;100743.22;5076418;28;20028;-68
2022/11/01 03:52:04;;;;;;;14.43;5.18;;;;;;;15.26;100.00;100736.25;5059842;28;20587;-68
2022/11/01 03:54:30;;;;;;;14.45;5.38;;;;;;;15.11;100.00;100734.84;5064162;28;20045;-68
2022/11/01 03:56:55;;;;;;;13.57;5.50;;;;;;;15.24;100.00;100743.59;5059180;28;20044;-69
2022/11/01 03:59:22;;;;;;;10.50;4.80;;;;;;;15.20;100.00;100734.94;5061817;28;20045;-68
2022/11/01 04:01:48;;;;;;;10.32;4.60;;;;;;;15.24;100.00;100736.38;5066214;28;20044;-69
2022/11/01 04:04:13;;;;;;;13.52;4.68;;;;;;;15.16;100.00;100741.56;5064580;28;20044;-67
2022/11/01 04:06:39;;;;;;;11.75;5.90;;;;;;;15.23;100.00;100756.19;5066151;28;20045;-67
2022/11/01 04:09:04;;;;;;;12.57;4.50;;;;;;;15.26;100.00;100752.34;5060727;28;20041;-68
2022/11/01 04:11:30;;;;;;;14.93;5.63;;;;;;;15.31;100.00;100757.34;5066310;28;20025;-67
2022/11/01 04:20:31;;;;;;;12.82;5.30;;;;;;;15.34;100.00;100766.00;5065422;28;20047;-67
2022/11/01 04:22:10;;;;;;;13.35;4.30;;;;;;;15.41;100.00;100775.28;5044148;28;20053;-68
2022/11/01 04:24:36;;;;;;;13.02;3.92;;;;;;;15.36;100.00;100776.63;5073557;28;20044;-67
2022/11/01 04:27:01;;;;;;;7.93;4.70;;;;;;;15.23;100.00;100790.25;5068560;28;20029;-67
2022/11/01 04:29:27;;;;;;;13.63;5.13;;;;;;;15.18;100.00;100797.84;5066608;28;20028;-69
2022/11/01 04:31:52;;;;;;;15.02;4.70;;;;;;;15.18;100.00;100806.75;5067061;28;20036;-68
2022/11/01 04:34:40;;;;;;;13.35;4.68;;;;;;;15.20;100.00;100811.97;5065188;28;20040;-69
2022/11/01 04:37:03;;;;;;;11.85;5.13;;;;;;;15.49;100.00;100812.22;5067096;28;20037;-69
2022/11/01 04:39:28;;;;;;;6.72;3.75;;;;;;;15.42;100.00;100825.34;5059510;28;20056;-68
2022/11/01 04:41:54;;;;;;;12.35;4.63;;;;;;;15.58;100.00;100837.50;5068234;28;20032;-68
2022/11/01 04:44:19;;;;;;;5.90;3.75;;;;;;;15.66;100.00;100840.41;5059506;28;20047;-68
2022/11/01 04:46:45;;;;;;;10.73;3.30;;;;;;;15.61;100.00;100839.91;5059951;28;20075;-69
2022/11/01 04:49:10;;;;;;;4.68;3.08;;;;;;;15.66;100.00;100845.78;5052970;28;20037;-68
2022/11/01 04:51:39;;;;;;;8.70;2.58;;;;;;;15.65;100.00;100847.59;5071030;28;20040;-68
2022/11/01 04:54:06;;;;;;;3.72;2.70;;;;;;;15.48;99.23;100859.75;5070523;28;20111;-68
2022/11/01 04:56:32;;;;;;;5.47;1.90;;;;;;;15.48;96.50;100870.50;5062788;28;20052;-69
2022/11/01 04:59:00;;;;;;;3.05;1.73;;;;;;;15.52;91.97;100868.44;5052744;28;20029;-69
2022/11/01 05:01:25;;;;;;;5.63;1.65;;;;;;;15.50;89.90;100879.28;5067385;28;20036;-69
2022/11/01 05:03:50;;;;;;;7.75;1.75;;;;;;;15.30;88.42;100885.47;5066564;28;20482;-68
2022/11/01 05:06:16;;;;;;;4.35;1.48;;;;;;;15.19;88.95;100893.56;5065959;28;20052;-67
2022/11/01 05:08:41;;;;;;;2.28;1.20;;;;;;;15.12;85.48;100901.28;5063808;28;20033;-68
2022/11/01 05:11:07;;;;;;;2.83;1.52;;;;;;;15.03;83.43;100907.38;5069810;28;20047;-69
2022/11/01 05:13:34;;;;;;;2.58;0.93;;;;;;;14.82;83.98;100907.28;5069122;28;20052;-67
2022/11/01 05:16:03;;;;;;;3.58;0.90;;;;;;;14.85;82.19;100915.09;5063473;28;20036;-69
2022/11/01 05:18:29;;;;;;;2.78;0.90;;;;;;;14.87;81.22;100926.56;5066152;28;20041;-68
2022/11/01 05:20:55;;;;;;;1.88;0.70;;;;;;;14.74;82.53;100929.38;5070961;28;20043;-67
2022/11/01 05:23:21;;;;;;;1.08;0.82;;;;;;;14.70;82.14;100935.94;5068781;28;20125;-68
2022/11/01 05:25:46;;;;;;;2.70;1.05;;;;;;;14.66;81.74;100944.34;5070557;28;20048;-68
2022/11/01 05:28:13;;;;;;;2.53;0.98;;;;;;;14.56;82.72;100948.75;5071960;28;20037;-69
2022/11/01 05:30:40;;;;;;;5.93;1.17;;;;;;;14.48;83.63;100947.53;5066788;28;20064;-68
2022/11/01 05:33:06;;;;;;;7.50;1.10;;;;;;;14.54;83.01;100970.34;5069393;28;20646;-69
2022/11/01 05:35:33;;;;;;;4.35;1.17;;;;;;;14.54;83.02;100978.41;5066442;28;20052;-68
2022/11/01 05:38:00;;;;;;;4.22;1.33;;;;;;;14.35;84.90;100964.66;5061279;28;20136;-68
2022/11/01 05:40:26;;;;;;;7.50;0.90;;;;;;;14.25;85.25;100968.03;5062062;28;20028;-70
2022/11/01 05:42:53;;;;;;;3.88;1.10;;;;;;;14.11;86.81;100965.59;5067041;28;20044;-68
2022/11/01 05:45:18;;;;;;;2.58;0.80;;;;;;;13.96;88.43;100974.78;5062580;28;20037;-69
2022/11/01 05:47:44;;;;;;;7.05;1.15;;;;;;;13.88;89.12;100982.56;5064495;28;20040;-68
2022/11/01 05:50:11;;;;;;;6.68;1.95;;;;;;;14.03;87.45;100980.53;5067397;28;20067;-67
2022/11/01 05:52:36;;;;;;;3.85;0.73;;;;;;;13.92;88.21;100984.88;5069655;28;20054;-68
2022/11/01 05:55:03;;;;;;;3.13;0.82;;;;;;;13.83;88.89;100992.75;5068193;28;20032;-68
2022/11/01 05:57:28;;;;;;;9.93;0.93;;;;;;;13.82;88.63;100996.41;5068624;28;20037;-67
2022/11/01 05:59:54;;;;;;;4.30;1.80;;;;;;;13.80;88.03;100984.94;5069774;28;20680;-69
2022/11/01 06:02:19;;;;;;;5.32;1.10;;;;;;;13.62;88.50;100993.38;5072336;28;20781;-68
2022/11/01 06:04:44;;;;;;;7.18;0.95;;;;;;;13.62;86.94;101001.44;5067708;28;20025;-69
2022/11/01 06:07:10;;;;;;;5.88;1.45;;;;;;;13.60;85.49;101002.50;5065640;28;20075;-69
2022/11/01 06:09:35;;;;;;;3.13;1.17;;;;;;;13.50;85.18;101014.84;5070310;28;20040;-69
2022/11/01 06:12:01;;;;;;;18.45;1.00;;;;;;;13.49;83.48;101024.72;5068529;28;20033;-69
2022/11/01 06:14:26;;;;;;;6.35;1.30;;;;;;;13.47;82.27;101023.97;5067635;28;20036;-68
2022/11/01 06:16:52;;;;;;;6.78;0.93;;;;;;;13.59;80.66;101015.03;5065265;28;20043;-67
2022/11/01 06:19:17;;;;;;;3.38;0.90;;;;;;;13.50;81.11;101030.94;5071539;28;20804;-69
2022/11/01 06:21:45;;;;;;;3.13;1.10;;;;;;;13.56;80.43;101039.41;5070518;28;20029;-69
2022/11/01 06:24:10;;;;;;;4.63;2.33;;;;;;;13.44;81.88;101040.25;5067779;28;20462;-70
2022/11/01 06:26:36;;;;;;;7.63;1.30;;;;;;;13.36;82.78;101053.38;5065407;28;20048;-70
2022/11/01 06:29:02;;;;;;;7.50;0.90;;;;;;;13.40;82.77;101041.44;5066973;28;20669;-70
2022/11/01 06:31:29;;;;;;;1.20;0.63;;;;;;;13.32;83.66;101054.56;5063177;28;20067;-70
2022/11/01 06:33:54;;;;;;;7.70;1.85;;;;;;;13.20;85.17;101054.44;5066074;28;20039;-71
2022/11/01 06:36:21;;;;;;;3.75;0.90;;;;;;;13.01;87.38;101048.66;5068328;28;20032;-70
2022/11/01 06:38:46;;;;;;;6.35;1.30;;;;;;;12.96;88.43;101045.44;5067247;28;20025;-69
2022/11/01 06:41:12;;;;;;;7.75;1.20;;;;;;;12.90;90.11;101052.09;5063220;28;20602;-69
2022/11/01 06:43:38;;;;;;;5.20;1.00;;;;;;;12.84;91.16;101073.06;5057234;28;20029;-69
2022/11/01 06:46:03;;;;;;;10.07;1.75;;;;;;;12.86;91.91;101077.34;5056189;28;20036;-69
2022/11/01 06:48:29;;;;;;;13.68;1.17;;;;;;;12.89;92.45;101089.66;5064046;28;20036;-69
2022/11/01 06:50:54;;;;;;;13.70;1.23;;;;;;;13.00;92.80;101088.91;5062109;28;20052;-71
2022/11/01 06:53:23;;;;;;;10.32;2.22;;;;;;;13.04;93.07;101096.63;5066585;28;20040;-69
2022/11/01 06:55:51;;;;;;;3.30;1.27;;;;;;;13.08;92.82;101098.13;5056426;28;20040;-67
2022/11/01 06:58:17;;;;;;;6.93;0.93;;;;;;;13.01;93.38;101104.88;5063890;28;20040;-70
2022/11/01 07:00:42;;;;;;;6.82;1.20;;;;;;;12.93;93.75;101105.41;5047827;28;20053;-69
2022/11/01 07:03:11;;;;;;;6.78;1.02;;;;;;;12.89;93.79;101103.88;5065522;28;20032;-69
2022/11/01 07:05:38;;;;;;;4.72;1.52;;;;;;;12.89;92.51;101103.03;5060189;28;20044;-70
2022/11/01 07:08:06;;;;;;;8.05;1.35;;;;;;;12.97;89.67;101103.38;5058470;28;20045;-70
2022/11/01 07:10:32;;;;;;;3.55;1.42;;;;;;;12.89;90.04;101111.91;5058462;28;20081;-71
2022/11/01 07:12:59;;;;;;;3.97;1.30;;;;;;;12.91;89.12;101119.88;5061422;28;20036;-71
2022/11/01 07:15:25;;;;;;;4.45;1.35;;;;;;;12.95;87.32;101113.31;5058370;28;20075;-70
2022/11/01 07:17:57;;;;;;;11.20;1.48;;;;;;;12.97;86.56;101122.13;5058170;28;20061;-69
2022/11/01 07:20:23;;;;;;;10.00;1.55;;;;;;;12.93;86.94;101132.16;5060303;28;20139;-71
2022/11/01 07:23:00;;;;;;;5.40;1.88;;;;;;;12.91;87.36;101133.25;5061607;28;20051;-69
2022/11/01 07:25:26;;;;;;;5.18;2.55;;;;;;;13.01;86.70;101137.00;5065621;28;20048;-69
2022/11/01 07:27:51;;;;;;;6.60;1.23;;;;;;;13.04;86.15;101141.28;5066067;28;20041;-71
2022/11/01 07:30:17;;;;;;;9.07;1.50;;;;;;;13.11;85.45;101148.78;5062729;28;20033;-70
2022/11/01 07:32:43;;;;;;;4.95;1.30;;;;;;;13.12;85.05;101145.16;5065106;28;20589;-68
2022/11/01 07:35:08;;;;;;;7.50;1.55;;;;;;;13.20;84.70;101158.88;5066181;28;20040;-70
2022/11/01 07:37:34;;;;;;;12.07;2.45;;;;;;;13.07;86.50;101163.34;5062511;28;20040;-71
2022/11/01 07:40:00;;;;;;;6.07;1.10;;;;;;;13.09;86.39;101165.91;5060199;28;20032;-71
2022/11/01 07:42:26;;;;;;;7.97;1.38;;;;;;;13.09;87.40;101171.25;5061331;28;20036;-71
2022/11/01 07:44:51;;;;;;;7.18;1.27;;;;;;;13.07;87.35;101171.38;5054627;28;20032;-71
2022/11/01 07:47:17;;;;;;;18.63;1.98;;;;;;;13.18;87.01;101176.84;5057284;28;20033;-70
2022/11/01 07:49:42;;;;;;;8.02;1.48;;;;;;;13.19;86.89;101173.19;5058942;28;20032;-71
2022/11/01 07:52:08;;;;;;;13.93;1.45;;;;;;;13.11;88.41;101185.41;5065204;28;20040;-71
2022/11/01 07:54:33;;;;;;;5.20;1.33;;;;;;;13.16;87.55;101173.44;5063821;28;20489;-69
2022/11/01 07:56:58;;;;;;;11.50;2.08;;;;;;;13.21;87.17;101190.06;5065836;28;20496;-70
2022/11/01 07:59:24;;;;;;;11.80;1.30;;;;;;;13.33;86.90;101187.50;5066289;28;20666;-70
2022/11/01 08:01:49;;;;;;;9.82;1.70;;;;;;;13.32;86.56;101180.44;5069036;28;20033;-68
2022/11/01 08:04:15;;;;;;;11.75;1.70;;;;;;;13.36;86.06;101192.66;5071256;28;20055;-68
2022/11/01 08:06:40;;;;;;;12.10;1.80;;;;;;;13.35;86.08;101191.78;5066088;28;20048;-71
2022/11/01 08:09:06;;;;;;;8.73;2.75;;;;;;;13.35;85.85;101191.78;5066092;28;20044;-70
2022/11/01 08:11:31;;;;;;;17.85;2.95;;;;;;;13.37;86.34;101194.38;5060545;28;20040;-71
2022/11/01 08:13:57;;;;;;;5.25;1.73;;;;;;;13.43;86.46;101202.81;5065714;28;20040;-71
2022/11/01 08:16:22;;;;;;;13.15;2.33;;;;;;;13.44;85.93;101187.59;5061296;28;20093;-70
2022/11/01 08:18:51;;;;;;;8.13;2.70;;;;;;;13.39;86.28;101195.97;5067126;28;20058;-71
2022/11/01 08:21:17;;;;;;;8.65;1.33;;;;;;;13.39;85.26;101197.78;5059535;28;20045;-71
2022/11/01 08:23:46;;;;;;;6.15;1.30;;;;;;;13.42;85.67;101210.97;5060204;28;20066;-71
2022/11/01 08:26:11;;;;;;;6.05;1.52;;;;;;;13.45;84.99;101208.94;5064609;28;20044;-71
2022/11/01 08:28:37;;;;;;;19.00;1.92;;;;;;;13.55;84.61;101225.22;5060702;28;20040;-70
2022/11/01 08:31:07;;;;;;;11.20;2.28;;;;;;;13.55;84.98;101227.91;5033852;28;20024;-70
2022/11/01 08:33:33;;;;;;;14.85;3.15;;;;;;;13.57;85.30;101219.78;5052281;28;20112;-70
2022/11/01 08:35:59;;;;;;;9.38;2.50;;;;;;;13.52;84.65;101219.22;5062894;28;20032;-68
2022/11/01 08:38:26;;;;;;;10.30;3.13;;;;;;;13.60;84.95;101227.56;5080157;28;20039;-69
2022/11/01 08:40:51;;;;;;;8.70;1.70;;;;;;;13.67;84.58;101237.78;5056528;28;20078;-70
2022/11/01 08:43:17;;;;;;;8.40;1.45;;;;;;;13.69;84.48;101246.56;5059234;28;20094;-70
2022/11/01 08:45:43;;;;;;;7.30;1.88;;;;;;;13.69;84.51;101251.91;5061203;28;20927;-70
2022/11/01 08:48:09;;;;;;;11.48;3.72;;;;;;;13.60;84.36;101241.81;5061737;28;20123;-71
2022/11/01 08:50:35;;;;;;;11.90;2.00;;;;;;;13.73;84.41;101249.88;5058008;28;20119;-70
2022/11/01 08:53:18;;;;;;;16.00;2.38;;;;;;;13.76;84.63;101265.75;5079768;28;20116;-70
2022/11/01 08:55:44;;;;;;;9.73;1.75;;;;;;;13.79;83.57;101253.97;5061977;28;20086;-68
2022/11/01 08:58:09;;;;;;;19.80;2.85;;;;;;;13.89;84.20;101250.50;5061941;28;20600;-69
2022/11/01 09:00:35;;;;;;;8.70;2.25;;;;;;;13.85;83.42;101251.69;5059353;28;20094;-67
2022/11/01 09:03:01;;;;;;;9.27;3.38;;;;;;;13.80;83.96;101255.66;5060279;28;20072;-69
2022/11/01 09:05:29;;;;;;;13.65;2.88;;;;;;;13.79;84.48;101257.50;5056563;28;20032;-68
2022/11/01 09:07:56;;;;;;;9.50;1.48;;;;;;;13.90;83.66;101268.31;5056675;28;20037;-67
2022/11/01 09:10:22;;;;;;;12.52;1.70;;;;;;;13.99;83.30;101269.50;5057455;28;20068;-69
2022/11/01 09:12:48;;;;;;;9.05;1.73;;;;;;;13.89;83.55;101274.63;5058706;28;20512;-69
2022/11/01 09:15:13;;;;;;;9.82;2.17;;;;;;;13.95;83.36;101276.03;5057588;28;20048;-68
2022/11/01 09:17:39;;;;;;;11.18;2.08;;;;;;;13.94;82.49;101272.50;5059919;28;20044;-67
2022/11/01 09:20:04;;;;;;;11.43;2.17;;;;;;;14.00;81.38;101279.25;5059420;28;20097;-67
2022/11/01 09:22:30;;;;;;;14.18;2.20;;;;;;;13.96;81.02;101273.25;5061666;28;20063;-69
2022/11/01 09:24:57;;;;;;;17.30;2.05;;;;;;;13.97;81.23;101268.75;5053040;28;20405;-67
2022/11/01 09:27:23;;;;;;;10.90;1.80;;;;;;;14.18;81.15;101285.13;5051367;28;20102;-70
2022/11/01 09:29:48;;;;;;;17.48;2.25;;;;;;;14.15;81.57;101291.56;5061138;28;20041;-69
2022/11/01 09:32:14;;;;;;;6.22;2.13;;;;;;;14.23;81.15;101278.47;5058633;28;20063;-68
2022/11/01 09:34:39;;;;;;;10.77;2.17;;;;;;;14.34;80.72;101288.44;5059421;28;20059;-68
2022/11/01 09:37:05;;;;;;;19.20;2.45;;;;;;;14.32;79.29;101289.53;5058343;28;20034;-70
2022/11/01 09:39:31;;;;;;;15.25;1.77;;;;;;;14.32;79.36;101286.84;5056623;28;20048;-70
2022/11/01 09:42:03;;;;;;;17.23;2.75;;;;;;;14.27;79.73;101289.00;5061675;28;20041;-70
2022/11/01 09:44:36;;;;;;;11.55;2.83;;;;;;;14.40;79.39;101300.53;5059559;28;20125;-68
2022/11/01 09:47:11;;;;;;;13.00;2.72;;;;;;;14.36;78.79;101302.59;5060965;28;20084;-70
2022/11/01 09:49:39;;;;;;;20.27;2.97;;;;;;;14.39;78.95;101302.38;5058313;28;20106;-69
2022/11/01 09:52:06;;;;;;;18.08;2.58;;;;;;;14.24;77.65;101324.94;5061179;28;20521;-69
2022/11/01 09:54:33;;;;;;;7.53;1.90;;;;;;;14.28;78.62;101314.84;5059644;28;20124;-69
2022/11/01 09:57:15;;;;;;;12.43;2.30;;;;;;;14.39;77.56;101321.16;5049948;28;20139;-70
2022/11/01 09:59:47;;;;;;;15.38;2.22;;;;;;;14.46;77.53;101306.34;5060409;28;20055;-70
2022/11/01 10:02:44;;;;;;;7.78;1.65;;;;;;;14.69;77.89;101325.31;5059295;28;20051;-70
2022/11/01 10:05:39;;;;;;;7.32;2.47;;;;;;;14.53;76.96;101340.81;5054429;28;20037;-68
2022/11/01 10:08:32;;;;;;;15.23;2.67;;;;;;;14.61;76.86;101335.72;5053089;28;20056;-69
2022/11/01 10:11:36;;;;;;;12.13;2.28;;;;;;;14.68;77.52;101337.88;5052449;28;20055;-68
2022/11/01 10:14:23;;;;;;;20.92;2.50;;;;;;;14.62;78.20;101332.97;5057385;28;20097;-69
2022/11/01 10:17:04;;;;;;;13.93;2.15;;;;;;;14.84;77.17;101358.22;5049753;28;20106;-68
2022/11/01 10:19:32;;;;;;;13.27;2.13;;;;;;;14.90;76.93;101355.09;5050910;28;20116;-68
2022/11/01 10:22:04;;;;;;;18.65;2.97;;;;;;;15.06;76.74;101368.25;5054656;28;20036;-69
2022/11/01 10:24:43;;;;;;;13.80;2.25;;;;;;;15.00;76.27;101361.50;5053669;28;20045;-68
2022/11/01 10:27:24;;;;;;;9.13;2.53;;;;;;;14.87;76.28;101366.94;5059832;28;20033;-70
2022/11/01 10:30:07;;;;;;;7.97;2.45;;;;;;;14.91;77.17;101372.91;5051484;28;20744;-70
2022/11/01 10:32:45;;;;;;;19.65;3.45;;;;;;;14.97;76.72;101376.03;5063219;28;20044;-69
2022/11/01 10:35:21;;;;;;;25.70;4.07;;;;;;;14.90;75.74;101382.81;5059347;28;20040;-68
2022/11/01 10:38:03;;;;;;;12.75;2.63;;;;;;;14.94;77.59;101404.94;5053701;28;20580;-69
2022/11/01 10:40:34;;;;;;;;;;;;;;;14.88;76.76;101400.88;5057533;28;20480;-68
2022/11/01 10:43:00;;;;;;;9.15;1.80;;;;;;;14.93;77.29;101392.47;5056033;28;19924;-68
2022/11/01 10:45:26;;;;;;;16.67;1.95;;;;;;;15.12;76.91;101400.91;5054267;28;20536;-70
2022/11/01 10:47:58;;;;;;;10.82;2.47;;;;;;;14.88;76.97;101395.50;5051154;28;20033;-69
2022/11/01 10:50:27;;;;;;;10.90;2.67;;;;;;;14.92;77.75;101396.13;5054138;28;20037;-70
2022/11/01 10:53:00;;;;;;;8.48;2.38;;;;;;;15.00;78.03;101389.22;5058157;28;20458;-67
2022/11/01 10:55:33;;;;;;;14.93;2.03;;;;;;;15.01;76.05;101399.00;5069027;28;20084;-68
2022/11/01 10:58:17;;;;;;;25.67;5.35;;;;;;;15.02;76.80;101391.81;5055063;28;20037;-70
2022/11/01 11:00:44;;;;;;;10.05;2.20;;;;;;;15.08;76.82;101395.88;5055881;28;20044;-70
2022/11/01 11:03:23;;;;;;;12.57;2.53;;;;;;;14.91;77.05;101384.53;5065794;28;20675;-69
2022/11/01 11:05:50;;;;;;;6.45;1.95;;;;;;;14.98;77.44;101390.31;5054660;28;20817;-69
2022/11/01 11:08:19;;;;;;;10.40;2.50;;;;;;;14.92;77.25;101375.50;5058731;28;20056;-70
2022/11/01 11:10:45;;;;;;;20.40;2.25;;;;;;;15.05;78.02;101391.56;5055765;28;20398;-69
2022/11/01 11:13:15;;;;;;;10.25;2.40;;;;;;;15.02;77.64;101387.28;5055905;28;20798;-69
2022/11/01 11:15:45;;;;;;;10.98;2.28;;;;;;;15.06;77.22;101387.03;5054387;28;20761;-69
2022/11/01 11:18:28;;;;;;;13.75;2.75;;;;;;;15.00;77.71;101377.63;5053899;28;20150;-68
2022/11/01 11:20:58;;;;;;;8.77;1.95;;;;;;;15.11;76.91;101380.41;5053124;28;20032;-68
2022/11/01 11:23:26;;;;;;;14.38;2.70;;;;;;;15.25;76.33;101396.31;5053154;28;20147;-70
2022/11/01 11:25:52;;;;;;;17.17;2.22;;;;;;;15.21;78.06;101386.81;5060079;28;20401;-71
2022/11/01 11:28:26;;;;;;;8.95;2.25;;;;;;;15.32;77.38;101382.47;5068786;28;20090;-67
2022/11/01 11:30:52;;;;;;;9.95;2.20;;;;;;;15.41;76.80;101395.19;5059282;28;20830;-70